This is the latest recevied weather packets stored in our database for station/object W5HKR. If no packets are shown the sender has not sent any weather packets the latest 10 day(s).
| Time | Temp. | Humidity | Pressure | Rain* | Wind** | Luminosity | Snow |
|---|---|---|---|---|---|---|---|
| 1777654399 | 18.33° C | 91% | 990.6 hPa | 0 mm | - | - | - |
| 1777654099 | 17.22° C | 92% | 982.7 hPa | 0 mm | - | - | - |
| 1777653993 | 17.22° C | 92% | 982.1 hPa | 0 mm | - | - | - |
| 1777653801 | 17.22° C | 93% | 982.3 hPa | 0 mm | - | - | - |
| 1777653200 | 18.33° C | 91% | 990.6 hPa | 0 mm | - | - | - |
| 1777652901 | 18.33° C | 91% | 990.6 hPa | 0.25 mm | - | - | - |
| 1777652600 | 17.22° C | 96% | 981.4 hPa | 0.25 mm | - | - | - |
| 1777652300 | 18.33° C | 91% | 990.6 hPa | 0.25 mm | - | - | - |
| 1777652001 | 18.33° C | 91% | 990.6 hPa | 0.51 mm | - | - | - |
| 1777651831 | 18.33° C | 91% | 990.6 hPa | 0.51 mm | - | - | - |
| 1777651700 | 18.33° C | 91% | 990.6 hPa | 0.51 mm | - | - | - |
| 1777651099 | 17.22° C | 97% | 982.7 hPa | 0.76 mm | - | - | - |
| 1777650799 | 18.33° C | 91% | 990.6 hPa | 0.76 mm | - | - | - |
| 1777650752 | 18.33° C | 91% | 990.6 hPa | 0.76 mm | - | - | - |
| 1777650501 | 16.67° C | 97% | 982.7 hPa | 0.76 mm | - | - | - |
| 1777650200 | 18.33° C | 91% | 990.6 hPa | 1.02 mm | - | - | - |
| 1777649899 | 16.67° C | 98% | 982.2 hPa | 1.02 mm | - | - | - |
| 1777649673 | 18.33° C | 91% | 990.6 hPa | 1.02 mm | - | - | - |
| 1777649600 | 18.33° C | 91% | 990.6 hPa | 1.02 mm | - | - | - |
| 1777649301 | 18.33° C | 91% | 990.6 hPa | 1.02 mm | - | - | - |
| 1777649000 | 15.56° C | 98% | 983.4 hPa | 0.76 mm | - | - | - |
| 1777648699 | 18.33° C | 91% | 990.6 hPa | 0.76 mm | - | - | - |
| 1777648401 | 18.33° C | 91% | 990.6 hPa | 0.51 mm | - | - | - |
| 1777648100 | 18.33° C | 91% | 990.6 hPa | 0.51 mm | - | - | - |
| 1777647801 | 18.33° C | 91% | 990.6 hPa | 0.51 mm | - | - | - |
* Rain latest hour (hover to see other rain measurements)
** Current wind speed in m/s (hover to see current wind gust speed)